sensor_id;sensor_type;location;lat;lon;timestamp;pressure;altitude;pressure_sealevel;temperature;humidity
5879;BME280;2965;42.640;23.370;2023-02-28T05:01:23;94989.69;;;6.23;100.00
5879;BME280;2965;42.640;23.370;2023-02-28T05:03:51;94988.97;;;6.30;100.00
5879;BME280;2965;42.640;23.370;2023-02-28T05:06:17;94991.94;;;6.36;100.00
5879;BME280;2965;42.640;23.370;2023-02-28T05:08:43;94999.34;;;6.30;100.00
5879;BME280;2965;42.640;23.370;2023-02-28T05:11:15;95003.19;;;6.26;100.00
5879;BME280;2965;42.640;23.370;2023-02-28T05:13:41;95002.41;;;6.44;100.00
5879;BME280;2965;42.640;23.370;2023-02-28T05:16:07;94999.31;;;6.58;100.00
5879;BME280;2965;42.640;23.370;2023-02-28T05:18:32;95003.41;;;6.61;100.00
5879;BME280;2965;42.640;23.370;2023-02-28T05:20:57;94999.91;;;6.52;100.00
5879;BME280;2965;42.640;23.370;2023-02-28T05:23:26;95008.16;;;6.65;100.00
5879;BME280;2965;42.640;23.370;2023-02-28T05:25:52;95005.69;;;6.46;100.00
5879;BME280;2965;42.640;23.370;2023-02-28T05:28:18;95014.06;;;6.40;100.00
5879;BME280;2965;42.640;23.370;2023-02-28T05:30:44;95017.09;;;6.35;100.00
5879;BME280;2965;42.640;23.370;2023-02-28T05:33:11;95021.09;;;6.29;100.00
5879;BME280;2965;42.640;23.370;2023-02-28T05:35:38;95019.09;;;6.41;100.00
5879;BME280;2965;42.640;23.370;2023-02-28T05:38:04;95018.38;;;6.49;100.00
5879;BME280;2965;42.640;23.370;2023-02-28T05:40:29;95018.63;;;6.55;100.00
5879;BME280;2965;42.640;23.370;2023-02-28T05:42:55;95028.34;;;6.53;100.00
5879;BME280;2965;42.640;23.370;2023-02-28T05:45:20;95031.41;;;6.21;100.00
5879;BME280;2965;42.640;23.370;2023-02-28T05:47:45;95036.22;;;6.44;100.00
5879;BME280;2965;42.640;23.370;2023-02-28T05:50:11;95037.19;;;6.43;100.00
5879;BME280;2965;42.640;23.370;2023-02-28T05:52:36;95035.88;;;6.56;100.00
5879;BME280;2965;42.640;23.370;2023-02-28T05:55:02;95028.09;;;6.74;100.00
5879;BME280;2965;42.640;23.370;2023-02-28T05:57:28;95037.00;;;6.90;100.00
5879;BME280;2965;42.640;23.370;2023-02-28T05:59:53;95034.78;;;6.95;100.00
5879;BME280;2965;42.640;23.370;2023-02-28T06:02:19;95026.13;;;6.76;100.00
5879;BME280;2965;42.640;23.370;2023-02-28T06:04:45;95024.97;;;6.71;100.00
5879;BME280;2965;42.640;23.370;2023-02-28T06:07:10;95030.34;;;6.60;100.00
5879;BME280;2965;42.640;23.370;2023-02-28T06:09:36;95039.19;;;6.49;100.00
5879;BME280;2965;42.640;23.370;2023-02-28T06:12:04;95032.91;;;6.42;100.00
5879;BME280;2965;42.640;23.370;2023-02-28T06:14:31;95025.59;;;6.55;100.00
5879;BME280;2965;42.640;23.370;2023-02-28T06:16:57;95016.06;;;6.73;100.00
5879;BME280;2965;42.640;23.370;2023-02-28T06:19:22;95023.25;;;6.79;100.00
5879;BME280;2965;42.640;23.370;2023-02-28T06:21:51;95025.25;;;6.86;100.00
5879;BME280;2965;42.640;23.370;2023-02-28T06:24:18;95021.41;;;6.90;100.00
5879;BME280;2965;42.640;23.370;2023-02-28T06:26:43;95030.00;;;7.08;100.00
5879;BME280;2965;42.640;23.370;2023-02-28T06:29:09;95026.31;;;7.11;100.00
5879;BME280;2965;42.640;23.370;2023-02-28T06:31:34;95027.13;;;7.11;100.00
5879;BME280;2965;42.640;23.370;2023-02-28T06:33:59;95038.66;;;7.08;100.00
5879;BME280;2965;42.640;23.370;2023-02-28T06:36:25;95033.91;;;7.04;100.00
5879;BME280;2965;42.640;23.370;2023-02-28T06:41:27;95029.72;;;7.11;100.00
5879;BME280;2965;42.640;23.370;2023-02-28T06:43:53;95039.47;;;7.09;100.00
5879;BME280;2965;42.640;23.370;2023-02-28T06:46:19;95044.34;;;7.12;100.00
5879;BME280;2965;42.640;23.370;2023-02-28T06:48:45;95042.38;;;7.06;100.00
5879;BME280;2965;42.640;23.370;2023-02-28T06:51:15;95043.91;;;7.17;100.00
5879;BME280;2965;42.640;23.370;2023-02-28T06:53:41;95050.06;;;7.33;100.00
5879;BME280;2965;42.640;23.370;2023-02-28T06:56:12;95048.75;;;7.29;100.00
5879;BME280;2965;42.640;23.370;2023-02-28T06:58:38;95060.88;;;7.21;100.00
5879;BME280;2965;42.640;23.370;2023-02-28T07:01:05;95061.38;;;7.24;100.00
5879;BME280;2965;42.640;23.370;2023-02-28T07:03:30;95053.81;;;7.13;100.00
5879;BME280;2965;42.640;23.370;2023-02-28T07:05:56;95050.78;;;7.18;100.00
5879;BME280;2965;42.640;23.370;2023-02-28T07:10:54;95043.25;;;7.32;100.00
5879;BME280;2965;42.640;23.370;2023-02-28T07:13:20;95052.75;;;7.42;100.00
5879;BME280;2965;42.640;23.370;2023-02-28T07:15:56;95041.88;;;7.46;100.00
5879;BME280;2965;42.640;23.370;2023-02-28T07:18:24;95043.56;;;7.55;100.00
5879;BME280;2965;42.640;23.370;2023-02-28T07:20:51;95041.84;;;7.64;100.00
5879;BME280;2965;42.640;23.370;2023-02-28T07:23:16;95044.81;;;7.69;100.00
5879;BME280;2965;42.640;23.370;2023-02-28T07:25:42;95047.56;;;7.68;100.00
5879;BME280;2965;42.640;23.370;2023-02-28T07:28:07;95047.56;;;7.68;100.00
5879;BME280;2965;42.640;23.370;2023-02-28T07:30:32;95053.03;;;7.82;100.00
5879;BME280;2965;42.640;23.370;2023-02-28T07:32:58;95044.09;;;8.11;100.00
5879;BME280;2965;42.640;23.370;2023-02-28T07:35:23;95045.81;;;8.28;100.00
5879;BME280;2965;42.640;23.370;2023-02-28T07:37:49;95043.31;;;8.53;100.00
5879;BME280;2965;42.640;23.370;2023-02-28T07:40:15;95048.56;;;8.61;100.00
5879;BME280;2965;42.640;23.370;2023-02-28T07:42:41;95038.50;;;8.74;100.00
5879;BME280;2965;42.640;23.370;2023-02-28T07:45:08;95054.75;;;8.60;100.00
5879;BME280;2965;42.640;23.370;2023-02-28T07:47:39;95052.22;;;8.84;100.00
5879;BME280;2965;42.640;23.370;2023-02-28T07:50:06;95052.09;;;8.94;100.00
5879;BME280;2965;42.640;23.370;2023-02-28T07:52:32;95052.09;;;9.10;100.00
5879;BME280;2965;42.640;23.370;2023-02-28T07:54:57;95051.59;;;8.91;100.00
5879;BME280;2965;42.640;23.370;2023-02-28T07:57:22;95049.69;;;9.17;100.00
5879;BME280;2965;42.640;23.370;2023-02-28T07:59:48;95039.06;;;9.10;100.00
5879;BME280;2965;42.640;23.370;2023-02-28T08:02:15;95045.28;;;9.26;100.00
5879;BME280;2965;42.640;23.370;2023-02-28T08:04:40;95041.53;;;9.37;100.00
5879;BME280;2965;42.640;23.370;2023-02-28T08:07:06;95049.06;;;9.48;100.00
5879;BME280;2965;42.640;23.370;2023-02-28T08:09:33;95050.34;;;9.52;100.00
5879;BME280;2965;42.640;23.370;2023-02-28T08:11:59;95049.84;;;9.65;100.00
5879;BME280;2965;42.640;23.370;2023-02-28T08:14:24;95047.03;;;9.82;100.00
5879;BME280;2965;42.640;23.370;2023-02-28T08:16:50;95040.16;;;9.98;100.00
5879;BME280;2965;42.640;23.370;2023-02-28T08:19:15;95042.13;;;9.96;100.00
5879;BME280;2965;42.640;23.370;2023-02-28T08:21:40;95041.97;;;10.05;100.00
5879;BME280;2965;42.640;23.370;2023-02-28T08:24:06;95043.72;;;10.13;100.00
5879;BME280;2965;42.640;23.370;2023-02-28T08:26:32;95039.81;;;10.09;100.00
5879;BME280;2965;42.640;23.370;2023-02-28T08:28:57;95044.50;;;10.22;100.00
5879;BME280;2965;42.640;23.370;2023-02-28T08:31:22;95046.63;;;10.34;100.00
5879;BME280;2965;42.640;23.370;2023-02-28T08:33:48;95050.06;;;10.35;100.00
5879;BME280;2965;42.640;23.370;2023-02-28T08:36:16;95051.53;;;10.21;100.00
5879;BME280;2965;42.640;23.370;2023-02-28T08:38:41;95051.84;;;10.43;100.00
5879;BME280;2965;42.640;23.370;2023-02-28T08:41:10;95056.34;;;10.57;100.00
5879;BME280;2965;42.640;23.370;2023-02-28T08:43:36;95052.63;;;10.51;100.00
5879;BME280;2965;42.640;23.370;2023-02-28T08:46:03;95050.50;;;10.55;100.00
5879;BME280;2965;42.640;23.370;2023-02-28T08:48:30;95052.75;;;10.58;100.00
5879;BME280;2965;42.640;23.370;2023-02-28T08:51:01;95054.41;;;10.59;100.00
5879;BME280;2965;42.640;23.370;2023-02-28T08:53:28;95055.03;;;10.61;100.00
5879;BME280;2965;42.640;23.370;2023-02-28T08:56:01;95051.75;;;10.67;100.00
5879;BME280;2965;42.640;23.370;2023-02-28T08:58:27;95063.28;;;10.81;100.00
5879;BME280;2965;42.640;23.370;2023-02-28T09:00:53;95061.13;;;10.84;100.00
5879;BME280;2965;42.640;23.370;2023-02-28T09:03:18;95065.44;;;10.77;100.00
5879;BME280;2965;42.640;23.370;2023-02-28T09:06:00;95069.38;;;10.73;100.00
5879;BME280;2965;42.640;23.370;2023-02-28T09:08:28;95067.72;;;10.80;100.00
5879;BME280;2965;42.640;23.370;2023-02-28T09:10:54;95058.66;;;10.91;100.00
5879;BME280;2965;42.640;23.370;2023-02-28T09:13:22;95068.94;;;10.93;100.00
5879;BME280;2965;42.640;23.370;2023-02-28T09:15:47;95058.72;;;11.06;100.00
5879;BME280;2965;42.640;23.370;2023-02-28T09:18:13;95052.41;;;11.23;100.00
5879;BME280;2965;42.640;23.370;2023-02-28T09:20:40;95063.69;;;11.24;100.00
5879;BME280;2965;42.640;23.370;2023-02-28T09:23:06;95067.63;;;11.20;100.00
5879;BME280;2965;42.640;23.370;2023-02-28T09:25:33;95058.44;;;10.70;100.00
5879;BME280;2965;42.640;23.370;2023-02-28T09:27:58;95048.25;;;10.35;100.00
5879;BME280;2965;42.640;23.370;2023-02-28T09:30:24;95052.13;;;10.48;100.00
5879;BME280;2965;42.640;23.370;2023-02-28T09:32:49;95058.44;;;10.70;100.00
5879;BME280;2965;42.640;23.370;2023-02-28T09:35:19;95057.84;;;10.91;100.00
5879;BME280;2965;42.640;23.370;2023-02-28T09:37:47;95057.38;;;11.10;100.00
5879;BME280;2965;42.640;23.370;2023-02-28T09:40:14;95056.47;;;11.26;100.00
5879;BME280;2965;42.640;23.370;2023-02-28T09:42:45;95050.44;;;11.25;100.00
5879;BME280;2965;42.640;23.370;2023-02-28T09:45:32;95053.34;;;11.30;100.00
5879;BME280;2965;42.640;23.370;2023-02-28T09:48:04;95049.72;;;11.31;100.00
5879;BME280;2965;42.640;23.370;2023-02-28T09:50:46;95051.63;;;11.37;100.00
5879;BME280;2965;42.640;23.370;2023-02-28T09:53:25;95049.91;;;11.53;100.00
5879;BME280;2965;42.640;23.370;2023-02-28T09:55:55;95046.63;;;11.74;100.00
5879;BME280;2965;42.640;23.370;2023-02-28T09:58:31;95067.03;;;11.86;100.00
5879;BME280;2965;42.640;23.370;2023-02-28T10:01:48;95066.50;;;12.06;100.00
5879;BME280;2965;42.640;23.370;2023-02-28T10:06:39;95057.22;;;12.33;100.00
5879;BME280;2965;42.640;23.370;2023-02-28T10:09:21;95059.56;;;12.43;100.00
5879;BME280;2965;42.640;23.370;2023-02-28T10:11:50;95046.16;;;12.37;100.00
5879;BME280;2965;42.640;23.370;2023-02-28T10:14:26;95045.00;;;12.40;100.00
5879;BME280;2965;42.640;23.370;2023-02-28T10:16:56;95047.09;;;12.45;100.00
5879;BME280;2965;42.640;23.370;2023-02-28T10:19:28;95049.44;;;12.40;100.00
5879;BME280;2965;42.640;23.370;2023-02-28T10:22:05;95044.72;;;12.20;100.00
5879;BME280;2965;42.640;23.370;2023-02-28T10:24:41;95038.59;;;12.13;100.00
5879;BME280;2965;42.640;23.370;2023-02-28T10:27:19;95029.09;;;12.27;100.00
5879;BME280;2965;42.640;23.370;2023-02-28T10:29:55;95030.97;;;12.48;100.00
5879;BME280;2965;42.640;23.370;2023-02-28T10:32:30;95022.56;;;12.37;100.00
5879;BME280;2965;42.640;23.370;2023-02-28T10:35:18;95026.59;;;12.84;100.00
5879;BME280;2965;42.640;23.370;2023-02-28T10:37:46;95019.59;;;13.13;100.00
5879;BME280;2965;42.640;23.370;2023-02-28T10:45:24;95021.47;;;13.83;100.00
5879;BME280;2965;42.640;23.370;2023-02-28T10:50:44;95001.94;;;14.27;100.00
5879;BME280;2965;42.640;23.370;2023-02-28T11:01:40;94999.91;;;15.25;100.00
5879;BME280;2965;42.640;23.370;2023-02-28T11:04:36;95000.72;;;15.19;100.00
5879;BME280;2965;42.640;23.370;2023-02-28T11:07:05;94995.81;;;15.03;100.00
5879;BME280;2965;42.640;23.370;2023-02-28T11:09:39;94995.41;;;15.06;100.00
5879;BME280;2965;42.640;23.370;2023-02-28T11:12:10;94987.09;;;15.09;100.00
5879;BME280;2965;42.640;23.370;2023-02-28T11:14:52;94984.28;;;15.17;100.00
5879;BME280;2965;42.640;23.370;2023-02-28T11:17:27;94995.00;;;15.02;100.00
5879;BME280;2965;42.640;23.370;2023-02-28T11:19:57;94987.75;;;15.24;100.00
5879;BME280;2965;42.640;23.370;2023-02-28T11:22:27;94986.47;;;15.00;100.00
5879;BME280;2965;42.640;23.370;2023-02-28T11:24:57;94988.53;;;15.18;100.00
5879;BME280;2965;42.640;23.370;2023-02-28T11:32:50;94985.13;;;14.28;100.00
5879;BME280;2965;42.640;23.370;2023-02-28T11:37:55;94982.78;;;14.47;100.00
5879;BME280;2965;42.640;23.370;2023-02-28T11:45:59;94987.59;;;14.71;100.00
5879;BME280;2965;42.640;23.370;2023-02-28T11:51:21;94980.19;;;15.01;100.00
5879;BME280;2965;42.640;23.370;2023-02-28T12:02:29;94982.81;;;14.88;100.00
5879;BME280;2965;42.640;23.370;2023-02-28T12:05:27;94985.13;;;14.63;100.00
5879;BME280;2965;42.640;23.370;2023-02-28T12:11:01;94979.66;;;14.23;100.00
5879;BME280;2965;42.640;23.370;2023-02-28T12:13:38;94979.56;;;14.10;100.00
5879;BME280;2965;42.640;23.370;2023-02-28T12:19:11;94966.25;;;13.83;100.00
5879;BME280;2965;42.640;23.370;2023-02-28T12:26:53;94971.84;;;14.02;100.00
5879;BME280;2965;42.640;23.370;2023-02-28T12:29:29;94966.13;;;13.92;100.00
5879;BME280;2965;42.640;23.370;2023-02-28T12:31:58;94966.28;;;14.18;100.00
5879;BME280;2965;42.640;23.370;2023-02-28T12:34:32;94962.69;;;14.26;100.00
5879;BME280;2965;42.640;23.370;2023-02-28T12:37:03;94965.41;;;14.11;100.00
5879;BME280;2965;42.640;23.370;2023-02-28T12:39:33;94963.56;;;14.39;100.00
5879;BME280;2965;42.640;23.370;2023-02-28T12:42:05;94971.53;;;14.18;100.00
5879;BME280;2965;42.640;23.370;2023-02-28T12:44:40;94969.88;;;14.10;100.00
5879;BME280;2965;42.640;23.370;2023-02-28T12:47:15;94960.06;;;13.91;100.00
5879;BME280;2965;42.640;23.370;2023-02-28T12:49:51;94958.09;;;13.72;100.00
5879;BME280;2965;42.640;23.370;2023-02-28T12:55:27;94966.88;;;13.85;100.00
5879;BME280;2965;42.640;23.370;2023-02-28T13:00:35;94967.09;;;13.56;100.00
5879;BME280;2965;42.640;23.370;2023-02-28T13:03:10;94962.56;;;13.50;100.00
5879;BME280;2965;42.640;23.370;2023-02-28T13:11:33;94967.44;;;13.53;100.00
5879;BME280;2965;42.640;23.370;2023-02-28T13:14:05;94952.34;;;13.89;100.00
5879;BME280;2965;42.640;23.370;2023-02-28T13:16:55;94961.88;;;13.91;100.00
5879;BME280;2965;42.640;23.370;2023-02-28T13:19:22;94960.41;;;13.81;100.00
5879;BME280;2965;42.640;23.370;2023-02-28T13:21:50;94965.63;;;14.09;100.00
5879;BME280;2965;42.640;23.370;2023-02-28T13:24:40;94953.41;;;14.36;100.00
5879;BME280;2965;42.640;23.370;2023-02-28T13:29:38;94960.16;;;14.11;100.00
5879;BME280;2965;42.640;23.370;2023-02-28T13:34:36;94958.75;;;13.80;100.00
5879;BME280;2965;42.640;23.370;2023-02-28T13:49:54;94945.69;;;13.16;100.00
5879;BME280;2965;42.640;23.370;2023-02-28T13:52:23;94942.56;;;12.84;100.00
5879;BME280;2965;42.640;23.370;2023-02-28T14:01:02;94947.94;;;12.25;100.00
5879;BME280;2965;42.640;23.370;2023-02-28T14:06:29;94932.94;;;12.19;100.00
5879;BME280;2965;42.640;23.370;2023-02-28T14:11:43;94941.25;;;11.78;100.00
5879;BME280;2965;42.640;23.370;2023-02-28T14:15:23;94936.66;;;11.95;100.00
5879;BME280;2965;42.640;23.370;2023-02-28T14:17:15;94939.81;;;11.91;100.00
5879;BME280;2965;42.640;23.370;2023-02-28T14:19:44;94936.72;;;11.72;100.00
5879;BME280;2965;42.640;23.370;2023-02-28T14:22:39;94935.81;;;11.65;100.00
5879;BME280;2965;42.640;23.370;2023-02-28T14:28:43;94938.66;;;11.41;100.00
5879;BME280;2965;42.640;23.370;2023-02-28T14:31:28;94948.00;;;11.43;100.00
5879;BME280;2965;42.640;23.370;2023-02-28T14:34:03;94943.75;;;11.57;100.00
5879;BME280;2965;42.640;23.370;2023-02-28T14:36:36;94943.41;;;11.60;100.00
5879;BME280;2965;42.640;23.370;2023-02-28T14:39:07;94944.31;;;11.67;100.00
5879;BME280;2965;42.640;23.370;2023-02-28T14:41:35;94943.59;;;11.73;100.00
5879;BME280;2965;42.640;23.370;2023-02-28T14:47:00;94948.81;;;10.98;100.00
5879;BME280;2965;42.640;23.370;2023-02-28T14:49:52;94942.47;;;11.15;100.00
5879;BME280;2965;42.640;23.370;2023-02-28T14:52:19;94938.81;;;11.24;100.00
5879;BME280;2965;42.640;23.370;2023-02-28T14:54:45;94934.56;;;11.61;100.00
5879;BME280;2965;42.640;23.370;2023-02-28T14:57:31;94940.53;;;11.32;100.00
5879;BME280;2965;42.640;23.370;2023-02-28T15:00:30;94945.09;;;11.15;100.00
5879;BME280;2965;42.640;23.370;2023-02-28T15:02:58;94944.50;;;11.28;100.00
5879;BME280;2965;42.640;23.370;2023-02-28T15:08:04;94936.31;;;11.31;100.00
5879;BME280;2965;42.640;23.370;2023-02-28T15:10:30;94940.69;;;10.93;100.00
5879;BME280;2965;42.640;23.370;2023-02-28T15:13:07;94929.16;;;10.56;100.00
5879;BME280;2965;42.640;23.370;2023-02-28T15:20:48;94946.97;;;11.29;100.00
5879;BME280;2965;42.640;23.370;2023-02-28T15:23:15;94946.59;;;11.32;100.00
5879;BME280;2965;42.640;23.370;2023-02-28T15:25:41;94940.47;;;11.02;100.00
5879;BME280;2965;42.640;23.370;2023-02-28T15:28:15;94944.78;;;10.72;100.00
5879;BME280;2965;42.640;23.370;2023-02-28T15:30:54;94943.53;;;10.29;100.00
5879;BME280;2965;42.640;23.370;2023-02-28T15:33:32;94943.78;;;10.03;100.00
5879;BME280;2965;42.640;23.370;2023-02-28T15:36:13;94937.94;;;9.93;100.00
5879;BME280;2965;42.640;23.370;2023-02-28T15:38:39;94931.78;;;9.77;100.00
5879;BME280;2965;42.640;23.370;2023-02-28T15:41:04;94937.31;;;9.82;100.00
5879;BME280;2965;42.640;23.370;2023-02-28T15:43:37;94933.28;;;9.64;100.00
5879;BME280;2965;42.640;23.370;2023-02-28T15:46:06;94937.84;;;9.70;100.00
5879;BME280;2965;42.640;23.370;2023-02-28T15:48:38;94937.66;;;9.79;100.00
5879;BME280;2965;42.640;23.370;2023-02-28T15:51:14;94931.09;;;9.92;100.00
5879;BME280;2965;42.640;23.370;2023-02-28T15:54:00;94940.91;;;9.81;100.00
5879;BME280;2965;42.640;23.370;2023-02-28T15:56:29;94944.53;;;9.64;100.00
5879;BME280;2965;42.640;23.370;2023-02-28T15:58:59;94939.63;;;9.69;100.00
5879;BME280;2965;42.640;23.370;2023-02-28T16:01:27;94930.31;;;9.75;100.00
5879;BME280;2965;42.640;23.370;2023-02-28T16:03:57;94930.53;;;9.65;100.00
5879;BME280;2965;42.640;23.370;2023-02-28T16:06:30;94941.09;;;9.72;100.00
5879;BME280;2965;42.640;23.370;2023-02-28T16:08:57;94936.41;;;9.59;100.00
5879;BME280;2965;42.640;23.370;2023-02-28T16:11:22;94947.50;;;9.61;100.00
5879;BME280;2965;42.640;23.370;2023-02-28T16:13:48;94945.59;;;9.30;100.00
5879;BME280;2965;42.640;23.370;2023-02-28T16:16:21;94967.47;;;9.21;100.00
5879;BME280;2965;42.640;23.370;2023-02-28T16:18:47;94970.38;;;9.10;100.00
5879;BME280;2965;42.640;23.370;2023-02-28T16:21:12;94977.25;;;9.19;100.00
5879;BME280;2965;42.640;23.370;2023-02-28T16:23:37;94985.22;;;9.34;100.00
5879;BME280;2965;42.640;23.370;2023-02-28T16:26:04;94985.75;;;9.21;100.00
5879;BME280;2965;42.640;23.370;2023-02-28T16:28:35;94999.91;;;9.27;100.00
5879;BME280;2965;42.640;23.370;2023-02-28T16:31:04;94999.75;;;9.04;100.00
5879;BME280;2965;42.640;23.370;2023-02-28T16:33:30;95007.41;;;9.05;100.00
5879;BME280;2965;42.640;23.370;2023-02-28T16:35:56;95006.91;;;9.10;100.00
5879;BME280;2965;42.640;23.370;2023-02-28T16:38:22;95013.78;;;9.11;100.00
5879;BME280;2965;42.640;23.370;2023-02-28T16:40:50;95017.34;;;9.02;100.00
5879;BME280;2965;42.640;23.370;2023-02-28T16:43:22;95018.16;;;9.02;100.00
5879;BME280;2965;42.640;23.370;2023-02-28T16:45:48;95024.88;;;9.05;100.00
5879;BME280;2965;42.640;23.370;2023-02-28T16:48:15;95026.97;;;9.01;100.00
5879;BME280;2965;42.640;23.370;2023-02-28T16:50:42;95019.63;;;8.97;100.00
5879;BME280;2965;42.640;23.370;2023-02-28T16:53:08;95032.31;;;8.83;100.00
5879;BME280;2965;42.640;23.370;2023-02-28T16:55:34;95034.25;;;8.73;100.00
5879;BME280;2965;42.640;23.370;2023-02-28T17:00:34;95039.28;;;8.67;100.00
5879;BME280;2965;42.640;23.370;2023-02-28T17:02:59;95031.63;;;8.65;100.00
5879;BME280;2965;42.640;23.370;2023-02-28T17:05:26;95032.91;;;8.61;100.00
5879;BME280;2965;42.640;23.370;2023-02-28T17:07:55;95029.94;;;8.48;100.00
5879;BME280;2965;42.640;23.370;2023-02-28T17:10:25;95031.56;;;8.49;100.00
5879;BME280;2965;42.640;23.370;2023-02-28T17:12:51;95032.59;;;8.56;100.00
5879;BME280;2965;42.640;23.370;2023-02-28T17:15:18;95032.81;;;8.37;100.00
5879;BME280;2965;42.640;23.370;2023-02-28T17:17:45;95030.47;;;8.25;100.00
5879;BME280;2965;42.640;23.370;2023-02-28T17:20:20;95030.72;;;8.06;100.00
5879;BME280;2965;42.640;23.370;2023-02-28T17:22:50;95029.28;;;7.86;100.00
5879;BME280;2965;42.640;23.370;2023-02-28T17:25:15;95029.28;;;7.86;100.00
5879;BME280;2965;42.640;23.370;2023-02-28T17:27:42;95018.88;;;7.86;100.00
5879;BME280;2965;42.640;23.370;2023-02-28T17:30:17;95030.50;;;7.99;100.00
5879;BME280;2965;42.640;23.370;2023-02-28T17:32:43;95020.56;;;7.95;100.00
5879;BME280;2965;42.640;23.370;2023-02-28T17:35:09;95019.56;;;7.96;100.00
5879;BME280;2965;42.640;23.370;2023-02-28T17:37:34;95010.66;;;7.72;100.00
5879;BME280;2965;42.640;23.370;2023-02-28T17:40:00;95011.53;;;7.55;100.00
5879;BME280;2965;42.640;23.370;2023-02-28T17:42:25;94999.59;;;7.44;100.00
5879;BME280;2965;42.640;23.370;2023-02-28T17:44:50;95000.69;;;7.42;100.00
5879;BME280;2965;42.640;23.370;2023-02-28T17:47:16;95000.19;;;7.38;100.00
5879;BME280;2965;42.640;23.370;2023-02-28T17:49:41;95001.72;;;7.49;100.00
5879;BME280;2965;42.640;23.370;2023-02-28T17:52:07;95009.19;;;7.44;100.00
5879;BME280;2965;42.640;23.370;2023-02-28T17:54:33;95005.91;;;7.42;100.00
5879;BME280;2965;42.640;23.370;2023-02-28T17:56:58;95002.94;;;7.37;100.00
5879;BME280;2965;42.640;23.370;2023-02-28T17:59:24;95003.22;;;7.33;100.00
5879;BME280;2965;42.640;23.370;2023-02-28T18:01:49;95008.44;;;7.33;100.00
5879;BME280;2965;42.640;23.370;2023-02-28T18:04:15;95001.25;;;7.27;100.00
5879;BME280;2965;42.640;23.370;2023-02-28T18:06:43;95008.34;;;7.17;100.00
5879;BME280;2965;42.640;23.370;2023-02-28T18:09:16;95013.06;;;7.40;100.00
5879;BME280;2965;42.640;23.370;2023-02-28T18:11:42;95007.88;;;7.48;100.00
5879;BME280;2965;42.640;23.370;2023-02-28T18:14:10;95001.50;;;7.42;100.00
5879;BME280;2965;42.640;23.370;2023-02-28T18:16:36;95005.59;;;7.45;100.00
5879;BME280;2965;42.640;23.370;2023-02-28T18:19:03;95006.19;;;7.39;100.00
5879;BME280;2965;42.640;23.370;2023-02-28T18:21:28;94999.06;;;7.41;100.00
5879;BME280;2965;42.640;23.370;2023-02-28T18:23:54;95001.81;;;7.39;100.00
5879;BME280;2965;42.640;23.370;2023-02-28T18:26:20;94993.84;;;7.41;100.00
5879;BME280;2965;42.640;23.370;2023-02-28T18:28:46;94997.66;;;7.28;100.00
5879;BME280;2965;42.640;23.370;2023-02-28T18:31:14;94998.94;;;7.24;100.00
5879;BME280;2965;42.640;23.370;2023-02-28T18:33:41;94992.47;;;7.28;100.00
5879;BME280;2965;42.640;23.370;2023-02-28T18:36:07;94991.81;;;7.26;100.00
5879;BME280;2965;42.640;23.370;2023-02-28T18:38:33;94999.97;;;7.31;100.00
5879;BME280;2965;42.640;23.370;2023-02-28T18:41:01;94999.66;;;7.34;100.00
5879;BME280;2965;42.640;23.370;2023-02-28T18:43:27;95010.69;;;7.28;100.00
5879;BME280;2965;42.640;23.370;2023-02-28T18:45:53;95010.97;;;7.25;100.00
5879;BME280;2965;42.640;23.370;2023-02-28T18:48:19;95014.16;;;7.37;100.00
5879;BME280;2965;42.640;23.370;2023-02-28T18:50:50;95017.34;;;7.49;100.00
5879;BME280;2965;42.640;23.370;2023-02-28T18:53:16;95021.31;;;7.61;100.00
5879;BME280;2965;42.640;23.370;2023-02-28T18:55:42;95024.09;;;7.59;100.00
5879;BME280;2965;42.640;23.370;2023-02-28T18:58:08;95031.44;;;7.64;100.00
5879;BME280;2965;42.640;23.370;2023-02-28T19:00:34;95028.88;;;7.72;100.00
5879;BME280;2965;42.640;23.370;2023-02-28T19:03:00;95027.44;;;7.78;100.00
5879;BME280;2965;42.640;23.370;2023-02-28T19:05:25;95035.94;;;7.80;100.00
5879;BME280;2965;42.640;23.370;2023-02-28T19:07:55;95027.91;;;7.73;100.00
5879;BME280;2965;42.640;23.370;2023-02-28T19:10:20;95031.13;;;7.67;100.00
5879;BME280;2965;42.640;23.370;2023-02-28T19:12:46;95027.25;;;7.71;100.00
5879;BME280;2965;42.640;23.370;2023-02-28T19:15:11;95025.31;;;7.73;100.00
5879;BME280;2965;42.640;23.370;2023-02-28T19:17:37;95027.09;;;7.73;100.00
5879;BME280;2965;42.640;23.370;2023-02-28T19:20:04;95035.72;;;7.73;100.00
5879;BME280;2965;42.640;23.370;2023-02-28T19:22:30;95043.03;;;7.70;100.00
5879;BME280;2965;42.640;23.370;2023-02-28T19:24:56;95035.31;;;7.60;100.00
5879;BME280;2965;42.640;23.370;2023-02-28T19:27:21;95036.06;;;7.70;100.00
5879;BME280;2965;42.640;23.370;2023-02-28T19:29:48;95037.50;;;7.73;100.00
5879;BME280;2965;42.640;23.370;2023-02-28T19:32:15;95036.34;;;7.67;100.00
5879;BME280;2965;42.640;23.370;2023-02-28T19:34:41;95038.66;;;7.70;100.00
5879;BME280;2965;42.640;23.370;2023-02-28T19:37:06;95039.94;;;7.66;100.00
5879;BME280;2965;42.640;23.370;2023-02-28T19:39:32;95037.47;;;7.65;100.00
5879;BME280;2965;42.640;23.370;2023-02-28T19:42:06;95041.84;;;7.64;100.00
5879;BME280;2965;42.640;23.370;2023-02-28T19:44:32;95031.25;;;7.57;100.00
5879;BME280;2965;42.640;23.370;2023-02-28T19:46:57;95033.97;;;7.56;100.00
5879;BME280;2965;42.640;23.370;2023-02-28T19:49:22;95033.84;;;7.57;100.00
5879;BME280;2965;42.640;23.370;2023-02-28T19:51:48;95030.63;;;7.64;100.00
5879;BME280;2965;42.640;23.370;2023-02-28T19:54:13;95024.31;;;7.66;100.00
5879;BME280;2965;42.640;23.370;2023-02-28T19:56:39;95022.28;;;7.60;100.00
5879;BME280;2965;42.640;23.370;2023-02-28T19:59:04;95024.38;;;7.56;100.00
5879;BME280;2965;42.640;23.370;2023-02-28T20:01:29;95022.56;;;7.49;100.00
5879;BME280;2965;42.640;23.370;2023-02-28T20:03:55;95027.75;;;7.49;100.00
5879;BME280;2965;42.640;23.370;2023-02-28T20:06:20;95024.81;;;7.44;100.00
5879;BME280;2965;42.640;23.370;2023-02-28T20:08:45;95025.16;;;7.49;100.00
5879;BME280;2965;42.640;23.370;2023-02-28T20:11:13;95027.75;;;7.49;100.00
5879;BME280;2965;42.640;23.370;2023-02-28T20:13:39;95019.94;;;7.49;100.00
5879;BME280;2965;42.640;23.370;2023-02-28T20:16:07;95020.91;;;7.48;100.00